Time;durP1;ratioP1;P1;durP2;ratioP2;P2;SDS_P1;SDS_P2;PMS_P1;PMS_P2;Temp;Humidity;BMP_temperature;BMP_pressure;BME280_temperature;BME280_humidity;BME280_pressure;Samples;Min_cycle;Max_cycle;Signal;HPM_P1;HPM_P2
2023/10/15 00:03:12;;;;;;;8.27;2.73;;;;;6.50;101364.00;;;;10420922;28;20199;-71
2023/10/15 00:08:14;;;;;;;5.33;3.23;;;;;6.50;101376.00;;;;10418399;28;20210;-71
2023/10/15 00:13:16;;;;;;;6.90;2.70;;;;;6.60;101379.00;;;;10418920;28;20726;-72
2023/10/15 00:18:18;;;;;;;4.90;2.00;;;;;6.60;101374.00;;;;10430510;28;20218;-71
2023/10/15 00:23:20;;;;;;;5.17;2.20;;;;;6.60;101379.00;;;;10420055;28;20206;-71
2023/10/15 00:28:23;;;;;;;3.23;1.50;;;;;6.50;101374.00;;;;10423518;28;20202;-71
2023/10/15 00:33:25;;;;;;;6.97;2.00;;;;;6.60;101399.00;;;;10418626;28;20290;-71
2023/10/15 00:38:27;;;;;;;3.87;2.03;;;;;6.70;101407.00;;;;10420453;28;20226;-72
2023/10/15 00:43:30;;;;;;;8.77;3.00;;;;;6.90;101406.00;;;;10414760;28;20265;-71
2023/10/15 00:48:35;;;;;;;6.03;2.23;;;;;7.10;101411.00;;;;10414424;28;20289;-71
2023/10/15 00:53:48;;;;;;;5.87;2.77;;;;;7.30;101405.00;;;;10419886;28;21599;-70
2023/10/15 01:03:59;;;;;;;4.07;1.97;;;;;7.40;101401.00;;;;10416555;28;20786;-71
2023/10/15 01:09:10;;;;;;;4.93;1.43;;;;;7.40;101390.00;;;;10427165;28;20818;-71
2023/10/15 01:14:13;;;;;;;7.77;1.30;;;;;7.40;101393.00;;;;10422667;28;20957;-70
2023/10/15 01:19:17;;;;;;;10.30;1.50;;;;;7.40;101401.00;;;;10417210;28;20225;-71
2023/10/15 01:24:20;;;;;;;6.20;1.53;;;;;7.40;101394.00;;;;10419323;28;20222;-70
2023/10/15 01:29:23;;;;;;;4.47;1.27;;;;;7.50;101396.00;;;;10413473;28;20222;-70
2023/10/15 01:34:25;;;;;;;4.87;1.63;;;;;7.40;101391.00;;;;10414714;28;20226;-70
2023/10/15 01:39:38;;;;;;;3.70;1.10;;;;;7.30;101378.00;;;;10423351;28;20863;-71
2023/10/15 01:44:47;;;;;;;4.53;1.40;;;;;7.20;101382.00;;;;10414934;28;20213;-70
2023/10/15 01:49:56;;;;;;;5.90;1.40;;;;;7.00;101367.00;;;;10432656;28;20766;-71
2023/10/15 01:55:03;;;;;;;4.03;1.40;;;;;6.90;101373.00;;;;10425687;28;20995;-71
2023/10/15 02:00:13;;;;;;;3.40;1.20;;;;;6.70;101373.00;;;;10427585;28;20234;-71
2023/10/15 02:05:41;;;;;;;6.07;1.50;;;;;6.70;101373.00;;;;10431605;28;20210;-71
2023/10/15 02:10:47;;;;;;;3.50;1.77;;;;;6.70;101376.00;;;;10425705;28;20550;-71
2023/10/15 02:15:50;;;;;;;6.20;1.50;;;;;6.80;101387.00;;;;10436432;28;20223;-70
2023/10/15 02:26:00;;;;;;;5.53;1.67;;;;;7.00;101390.00;;;;10427816;28;20714;-70
2023/10/15 02:36:16;;;;;;;4.53;1.60;;;;;7.00;101393.00;;;;10428262;28;20221;-71
2023/10/15 02:41:41;;;;;;;5.17;1.27;;;;;7.10;101396.00;;;;10427199;28;20637;-71
2023/10/15 02:46:50;;;;;;;4.13;1.80;;;;;7.10;101397.00;;;;10434305;28;20202;-71
2023/10/15 02:51:52;;;;;;;5.07;1.80;;;;;7.20;101392.00;;;;10426097;28;20213;-71
2023/10/15 02:56:59;;;;;;;7.10;1.50;;;;;7.20;101386.00;;;;10427328;28;20229;-70
2023/10/15 03:02:06;;;;;;;3.40;1.20;;;;;7.20;101398.00;;;;10429468;28;20217;-71
2023/10/15 03:07:19;;;;;;;2.20;1.10;;;;;7.20;101402.00;;;;10426415;28;20211;-71
2023/10/15 03:12:21;;;;;;;1.90;1.20;;;;;7.20;101396.00;;;;10456200;28;20723;-71
2023/10/15 03:17:29;;;;;;;5.50;1.13;;;;;7.30;101409.00;;;;10417912;28;20497;-70
2023/10/15 03:22:37;;;;;;;7.57;1.40;;;;;7.30;101411.00;;;;10408241;28;20309;-71
2023/10/15 03:27:40;;;;;;;4.10;1.13;;;;;7.30;101416.00;;;;10415714;28;20207;-71
2023/10/15 03:32:45;;;;;;;4.00;1.20;;;;;7.20;101421.00;;;;10409432;28;20221;-70
2023/10/15 03:37:47;;;;;;;2.37;1.10;;;;;7.20;101412.00;;;;10425255;28;20859;-71
2023/10/15 03:42:49;;;;;;;5.33;1.20;;;;;7.20;101415.00;;;;10425130;28;20200;-71
2023/10/15 03:47:54;;;;;;;2.93;1.13;;;;;7.20;101411.00;;;;10420772;28;20216;-71
2023/10/15 03:52:56;;;;;;;3.33;1.03;;;;;7.20;101412.00;;;;10418520;28;20210;-71
2023/10/15 03:57:58;;;;;;;4.97;1.10;;;;;7.20;101408.00;;;;10419112;28;20234;-71
2023/10/15 04:03:08;;;;;;;5.60;1.50;;;;;7.10;101406.00;;;;10424293;28;20206;-71
2023/10/15 04:08:18;;;;;;;3.70;0.90;;;;;7.10;101418.00;;;;10428314;28;20215;-70
2023/10/15 04:13:20;;;;;;;1.67;1.07;;;;;7.00;101424.00;;;;10412749;28;20207;-70
2023/10/15 04:18:23;;;;;;;4.37;0.87;;;;;7.00;101426.00;;;;10426340;28;20246;-70
2023/10/15 04:23:31;;;;;;;4.20;1.00;;;;;7.00;101418.00;;;;10421613;28;20946;-71
2023/10/15 04:28:34;;;;;;;1.60;0.90;;;;;7.00;101420.00;;;;10416896;28;20203;-71
2023/10/15 04:33:36;;;;;;;2.83;0.80;;;;;7.00;101424.00;;;;10412089;28;20227;-70
2023/10/15 04:38:38;;;;;;;0.97;0.80;;;;;7.00;101428.00;;;;10413854;28;20633;-71
2023/10/15 04:43:45;;;;;;;3.90;1.13;;;;;7.00;101435.00;;;;10417924;28;20211;-70
2023/10/15 04:48:50;;;;;;;3.47;1.00;;;;;7.00;101422.00;;;;10413350;28;20187;-70
2023/10/15 04:53:52;;;;;;;2.73;0.97;;;;;7.00;101434.00;;;;10418351;28;20209;-71
2023/10/15 04:58:57;;;;;;;3.50;0.80;;;;;6.90;101432.00;;;;10428558;28;20225;-71
2023/10/15 05:04:01;;;;;;;2.10;0.80;;;;;6.90;101438.00;;;;10430929;28;20218;-71
2023/10/15 05:09:08;;;;;;;5.10;1.20;;;;;6.80;101430.00;;;;10421408;28;20241;-71
2023/10/15 05:14:11;;;;;;;4.47;0.93;;;;;6.80;101436.00;;;;10422392;28;20251;-70
2023/10/15 05:19:17;;;;;;;3.03;0.90;;;;;6.80;101436.00;;;;10397040;28;20262;-71
2023/10/15 05:24:19;;;;;;;6.10;1.20;;;;;6.80;101441.00;;;;10429193;28;21162;-71
2023/10/15 05:29:21;;;;;;;5.40;1.13;;;;;6.80;101443.00;;;;10434246;28;20214;-70
2023/10/15 05:34:23;;;;;;;2.47;0.90;;;;;6.80;101435.00;;;;10424113;28;20656;-71
2023/10/15 05:39:27;;;;;;;2.17;1.17;;;;;6.80;101444.00;;;;10429920;28;20226;-71
2023/10/15 05:44:28;;;;;;;3.70;1.40;;;;;6.90;101441.00;;;;10433227;28;20228;-71
2023/10/15 05:49:30;;;;;;;3.97;1.20;;;;;6.90;101442.00;;;;10431588;28;20230;-71
2023/10/15 05:54:32;;;;;;;5.17;1.30;;;;;6.80;101444.00;;;;10413728;28;20245;-71
2023/10/15 05:59:35;;;;;;;4.80;1.10;;;;;6.80;101463.00;;;;10420413;28;20222;-70
2023/10/15 06:04:38;;;;;;;4.00;1.17;;;;;6.70;101457.00;;;;10423963;28;20198;-71
2023/10/15 06:09:44;;;;;;;2.03;0.93;;;;;6.70;101458.00;;;;10423906;28;20714;-71
2023/10/15 06:14:46;;;;;;;4.73;1.17;;;;;6.70;101471.00;;;;10422711;28;20280;-71
2023/10/15 06:19:48;;;;;;;4.70;1.30;;;;;6.70;101468.00;;;;10424731;28;20224;-71
2023/10/15 06:24:50;;;;;;;4.40;1.40;;;;;6.70;101469.00;;;;10438240;28;20213;-71
2023/10/15 06:29:52;;;;;;;2.30;1.40;;;;;6.80;101481.00;;;;10427851;28;20646;-71
2023/10/15 06:34:54;;;;;;;4.73;1.30;;;;;6.80;101492.00;;;;10422739;28;20210;-71
2023/10/15 06:39:56;;;;;;;2.67;1.10;;;;;6.80;101496.00;;;;10427910;28;20634;-71
2023/10/15 06:45:19;;;;;;;4.97;1.30;;;;;6.90;101494.00;;;;10423979;28;20206;-70
2023/10/15 06:50:22;;;;;;;2.97;1.30;;;;;7.00;101503.00;;;;10418326;28;20280;-71
2023/10/15 06:55:27;;;;;;;5.00;1.20;;;;;7.10;101505.00;;;;10426913;28;20214;-70
2023/10/15 07:00:31;;;;;;;2.63;1.30;;;;;7.20;101513.00;;;;10429936;28;20222;-71
2023/10/15 07:05:36;;;;;;;2.47;1.40;;;;;7.30;101523.00;;;;10421525;28;20294;-71
2023/10/15 07:10:41;;;;;;;6.50;1.53;;;;;7.40;101521.00;;;;10423135;28;20666;-71
2023/10/15 07:15:45;;;;;;;3.93;1.87;;;;;7.50;101520.00;;;;10425012;28;20255;-71
2023/10/15 07:20:47;;;;;;;6.87;1.70;;;;;7.60;101530.00;;;;10418830;28;20202;-71
2023/10/15 07:25:49;;;;;;;6.13;1.57;;;;;7.80;101532.00;;;;10422196;28;20975;-70
2023/10/15 07:30:52;;;;;;;9.50;1.50;;;;;7.90;101541.00;;;;10425140;28;20210;-71
2023/10/15 07:35:55;;;;;;;4.07;1.47;;;;;8.10;101546.00;;;;10415121;28;20640;-71
2023/10/15 07:40:57;;;;;;;4.77;1.60;;;;;8.20;101549.00;;;;10418200;28;20552;-71
2023/10/15 07:46:01;;;;;;;10.17;1.80;;;;;8.40;101552.00;;;;10419011;28;20222;-71
2023/10/15 07:51:03;;;;;;;6.40;1.70;;;;;8.60;101564.00;;;;10414426;28;20283;-71
2023/10/15 07:56:06;;;;;;;2.63;1.60;;;;;8.80;101559.00;;;;10417177;28;20250;-71
2023/10/15 08:01:08;;;;;;;8.67;1.57;;;;;9.00;101566.00;;;;10429381;28;20210;-71
2023/10/15 08:06:14;;;;;;;11.40;2.00;;;;;9.30;101578.00;;;;10426524;28;20210;-71
2023/10/15 08:11:16;;;;;;;8.00;2.13;;;;;9.70;101580.00;;;;10414249;28;20195;-71
2023/10/15 08:16:18;;;;;;;5.77;2.03;;;;;10.40;101588.00;;;;10418415;28;20226;-70
2023/10/15 08:21:21;;;;;;;3.63;1.40;;;;;10.80;101596.00;;;;10413218;28;20211;-71
2023/10/15 08:26:23;;;;;;;3.77;1.63;;;;;11.20;101603.00;;;;10415340;28;20825;-72
2023/10/15 08:31:25;;;;;;;4.70;1.63;;;;;11.60;101609.00;;;;10406994;28;20297;-71
2023/10/15 08:36:27;;;;;;;3.20;1.70;;;;;11.70;101625.00;;;;10412543;28;20294;-71
2023/10/15 08:41:29;;;;;;;4.47;1.63;;;;;10.90;101629.00;;;;10411269;28;20232;-72
2023/10/15 08:46:35;;;;;;;7.30;1.80;;;;;10.80;101632.00;;;;10408673;28;20219;-71
2023/10/15 08:51:37;;;;;;;4.50;2.03;;;;;11.60;101634.00;;;;10410239;28;20210;-72
2023/10/15 08:56:40;;;;;;;7.40;2.00;;;;;12.20;101650.00;;;;10419899;28;20301;-71
2023/10/15 09:01:43;;;;;;;12.70;2.77;;;;;12.80;101642.00;;;;10422765;28;20683;-71
2023/10/15 09:06:47;;;;;;;6.17;1.70;;;;;12.50;101658.00;;;;10418756;28;20308;-72
2023/10/15 09:11:50;;;;;;;5.07;2.03;;;;;11.50;101681.00;;;;10427612;28;20298;-73
2023/10/15 09:16:53;;;;;;;7.33;2.03;;;;;10.30;101668.00;;;;10431218;28;20268;-72
2023/10/15 09:21:55;;;;;;;7.67;2.80;;;;;10.00;101677.00;;;;10422502;28;20234;-72
2023/10/15 09:26:57;;;;;;;10.70;1.97;;;;;10.20;101689.00;;;;10427791;28;20337;-72
2023/10/15 09:32:04;;;;;;;5.90;2.07;;;;;10.30;101712.00;;;;10422544;28;20203;-71
2023/10/15 09:37:06;;;;;;;7.03;2.03;;;;;10.10;101737.00;;;;10419418;28;20913;-71
2023/10/15 09:42:09;;;;;;;4.17;1.37;;;;;9.70;101734.00;;;;10421860;28;20740;-71
2023/10/15 09:47:12;;;;;;;6.67;1.53;;;;;9.10;101742.00;;;;10420834;28;20614;-71
2023/10/15 09:52:14;;;;;;;8.07;1.87;;;;;8.70;101744.00;;;;10416731;28;20205;-71
2023/10/15 09:57:18;;;;;;;6.10;1.90;;;;;8.50;101743.00;;;;10405045;28;20218;-71
2023/10/15 10:02:34;;;;;;;6.50;2.43;;;;;8.70;101737.00;;;;10414196;28;20221;-71
2023/10/15 10:08:08;;;;;;;7.53;1.53;;;;;8.90;101735.00;;;;10416287;28;20205;-71
2023/10/15 10:13:22;;;;;;;7.97;2.47;;;;;8.90;101730.00;;;;10414559;28;20248;-70
2023/10/15 10:18:27;;;;;;;9.17;2.03;;;;;9.10;101736.00;;;;10415821;28;20703;-70
2023/10/15 10:23:29;;;;;;;5.43;2.10;;;;;9.40;101744.00;;;;10415931;28;20819;-70
2023/10/15 10:28:49;;;;;;;14.77;2.50;;;;;9.50;101742.00;;;;10420145;28;20978;-70
2023/10/15 10:33:54;;;;;;;11.53;2.20;;;;;9.40;101734.00;;;;10417554;28;20863;-69
2023/10/15 10:39:18;;;;;;;10.37;2.40;;;;;10.50;101737.00;;;;10419406;28;20845;-72
2023/10/15 10:44:22;;;;;;;13.20;2.03;;;;;11.60;101741.00;;;;10424567;28;20939;-71
2023/10/15 10:49:37;;;;;;;8.53;2.10;;;;;12.40;101741.00;;;;10411307;28;20210;-71
2023/10/15 10:54:39;;;;;;;9.83;2.50;;;;;12.70;101747.00;;;;10410011;28;20290;-71
2023/10/15 10:59:42;;;;;;;8.10;2.17;;;;;13.30;101745.00;;;;10417022;28;20286;-70
2023/10/15 11:04:44;;;;;;;6.97;1.97;;;;;13.70;101743.00;;;;10417309;28;20202;-71
2023/10/15 11:09:46;;;;;;;8.05;1.88;;;;;14.30;101742.00;;;;10415865;28;20541;-71
2023/10/15 11:14:48;;;;;;;7.45;2.10;;;;;13.30;101747.00;;;;10414090;28;20226;-71
2023/10/15 11:19:50;;;;;;;8.05;2.08;;;;;12.40;101742.00;;;;10409809;28;20210;-71
2023/10/15 11:24:52;;;;;;;8.90;1.87;;;;;11.60;101739.00;;;;10411564;28;20218;-71
2023/10/15 11:29:54;;;;;;;4.37;1.53;;;;;11.10;101758.00;;;;10411134;28;20769;-71
2023/10/15 11:34:57;;;;;;;3.10;1.20;;;;;11.00;101777.00;;;;10419452;28;20195;-71
2023/10/15 11:40:00;;;;;;;2.63;0.90;;;;;10.90;101783.00;;;;10414674;28;20226;-72
2023/10/15 11:45:16;;;;;;;5.90;1.37;;;;;10.70;101796.00;;;;10414221;28;20253;-71
2023/10/15 11:50:19;;;;;;;3.47;1.20;;;;;10.70;101810.00;;;;10412032;28;20194;-70
2023/10/15 11:55:23;;;;;;;2.47;1.03;;;;;10.60;101807.00;;;;10403038;28;20281;-70
2023/10/15 12:00:31;;;;;;;1.87;0.80;;;;;10.60;101795.00;;;;10407211;28;20222;-70
2023/10/15 12:05:33;;;;;;;3.40;0.83;;;;;10.40;101799.00;;;;10415276;28;20718;-70
2023/10/15 12:10:36;;;;;;;1.80;0.70;;;;;10.40;101803.00;;;;10404980;28;20950;-71
2023/10/15 12:15:38;;;;;;;2.23;0.80;;;;;10.80;101797.00;;;;10419445;28;20213;-71
2023/10/15 12:20:40;;;;;;;5.90;1.10;;;;;11.10;101802.00;;;;10409599;28;20209;-71
2023/10/15 12:25:43;;;;;;;3.77;0.97;;;;;11.50;101803.00;;;;10408035;28;20195;-71
2023/10/15 12:30:45;;;;;;;4.93;1.10;;;;;11.70;101801.00;;;;10411803;28;20218;-72
2023/10/15 12:35:50;;;;;;;4.37;1.00;;;;;12.00;101796.00;;;;10421325;28;20198;-70
2023/10/15 12:40:52;;;;;;;1.20;0.70;;;;;13.40;101790.00;;;;10415867;28;20229;-71
2023/10/15 12:45:54;;;;;;;3.30;1.07;;;;;14.00;101791.00;;;;10410823;28;20194;-71
2023/10/15 12:50:57;;;;;;;3.80;1.00;;;;;14.00;101785.00;;;;10413227;28;20202;-71
2023/10/15 12:56:00;;;;;;;3.80;1.23;;;;;13.00;101788.00;;;;10414823;28;20209;-72
2023/10/15 13:01:02;;;;;;;3.63;0.90;;;;;12.80;101787.00;;;;10413027;28;20898;-70
2023/10/15 13:06:06;;;;;;;5.20;1.25;;;;;13.20;101793.00;;;;10402179;28;21413;-70
2023/10/15 13:11:11;;;;;;;4.47;1.00;;;;;14.10;101789.00;;;;10409088;28;20195;-71
2023/10/15 13:16:13;;;;;;;3.30;0.98;;;;;13.90;101799.00;;;;10404864;28;20587;-72
2023/10/15 13:21:15;;;;;;;3.90;1.50;;;;;13.60;101792.00;;;;10410700;28;20214;-72
2023/10/15 13:26:17;;;;;;;3.72;0.90;;;;;13.30;101787.00;;;;10402366;28;21099;-71
2023/10/15 13:31:19;;;;;;;3.45;1.27;;;;;13.30;101801.00;;;;10408464;28;20277;-71
2023/10/15 13:36:21;;;;;;;3.00;1.10;;;;;13.30;101802.00;;;;10408015;28;20183;-71
2023/10/15 13:41:24;;;;;;;4.13;1.20;;;;;13.00;101804.00;;;;10416461;28;20433;-73
2023/10/15 13:46:26;;;;;;;3.67;1.20;;;;;12.60;101811.00;;;;10419806;28;20210;-70
2023/10/15 13:51:28;;;;;;;2.40;0.80;;;;;11.20;101834.00;;;;10422756;28;20191;-71
2023/10/15 13:56:30;;;;;;;3.00;1.10;;;;;9.40;101857.00;;;;10412581;28;20206;-71
2023/10/15 14:01:32;;;;;;;3.83;1.40;;;;;8.70;101861.00;;;;10419048;28;20319;-71
2023/10/15 14:06:34;;;;;;;3.27;0.93;;;;;8.60;101837.00;;;;10422654;28;20214;-71
2023/10/15 14:11:37;;;;;;;3.33;1.20;;;;;9.10;101830.00;;;;10427105;28;20194;-71
2023/10/15 14:16:39;;;;;;;3.50;1.20;;;;;9.90;101822.00;;;;10422048;28;20667;-71
2023/10/15 14:21:41;;;;;;;2.03;1.00;;;;;10.10;101831.00;;;;10418247;28;20588;-71
2023/10/15 14:26:45;;;;;;;4.50;0.90;;;;;10.40;101824.00;;;;10415957;28;20190;-73
2023/10/15 14:31:47;;;;;;;1.93;0.70;;;;;10.40;101827.00;;;;10410437;28;21171;-71
2023/10/15 14:36:51;;;;;;;2.03;0.90;;;;;10.30;101840.00;;;;10427257;28;20893;-71
2023/10/15 14:41:56;;;;;;;2.90;1.37;;;;;10.40;101846.00;;;;10412357;28;20750;-72
2023/10/15 14:46:58;;;;;;;4.03;1.00;;;;;10.30;101831.00;;;;10444397;28;20267;-72
2023/10/15 14:52:00;;;;;;;3.77;1.20;;;;;10.20;101851.00;;;;10419438;28;20608;-72
2023/10/15 14:57:02;;;;;;;7.60;1.60;;;;;9.90;101857.00;;;;10415362;28;20207;-72
2023/10/15 15:02:05;;;;;;;6.63;1.50;;;;;9.90;101856.00;;;;10414999;28;20904;-71
2023/10/15 15:07:07;;;;;;;4.77;1.60;;;;;9.80;101856.00;;;;10402582;28;20404;-71
2023/10/15 15:12:09;;;;;;;3.87;1.20;;;;;10.00;101850.00;;;;10419234;28;20599;-71
2023/10/15 15:17:10;;;;;;;10.20;1.30;;;;;9.90;101853.00;;;;10419134;28;20194;-71
2023/10/15 15:22:13;;;;;;;4.63;1.40;;;;;9.80;101844.00;;;;10414428;28;20241;-72
2023/10/15 15:27:15;;;;;;;4.57;1.60;;;;;9.90;101833.00;;;;10413693;28;20194;-72
2023/10/15 15:32:17;;;;;;;8.00;1.93;;;;;9.90;101844.00;;;;10416757;28;20191;-71
2023/10/15 16:38:32;;;;;;;6.37;2.33;;;;;9.00;101888.00;;;;10403574;28;20230;-72
2023/10/15 16:43:34;;;;;;;4.47;1.70;;;;;8.90;101888.00;;;;10411737;28;20219;-72
2023/10/15 16:48:37;;;;;;;5.17;1.90;;;;;8.80;101899.00;;;;10416066;28;20221;-72
2023/10/15 16:53:39;;;;;;;9.73;2.13;;;;;8.70;101901.00;;;;10409229;28;20227;-72
2023/10/15 16:58:41;;;;;;;6.83;2.40;;;;;8.70;101890.00;;;;10412727;28;20214;-72
2023/10/15 17:03:43;;;;;;;7.70;1.97;;;;;8.50;101895.00;;;;10412327;28;20217;-72
2023/10/15 17:08:47;;;;;;;6.03;2.53;;;;;8.30;101903.00;;;;10413902;28;20880;-72
2023/10/15 17:13:49;;;;;;;4.50;1.93;;;;;8.20;101901.00;;;;10410836;28;20202;-72
2023/10/15 17:18:51;;;;;;;6.30;2.80;;;;;8.10;101912.00;;;;10420806;28;20202;-71
2023/10/15 17:23:53;;;;;;;6.67;3.07;;;;;8.00;101914.00;;;;10415151;28;20604;-72
2023/10/15 17:28:54;;;;;;;5.83;2.10;;;;;7.90;101917.00;;;;10423335;28;20231;-72
2023/10/15 17:33:56;;;;;;;5.77;2.17;;;;;7.70;101929.00;;;;10420927;28;20607;-72
2023/10/15 17:38:58;;;;;;;6.43;2.50;;;;;7.60;101927.00;;;;10415381;28;20284;-72
2023/10/15 17:44:00;;;;;;;6.80;2.77;;;;;7.60;101930.00;;;;10416127;28;20191;-72
2023/10/15 17:49:02;;;;;;;7.60;2.40;;;;;7.50;101930.00;;;;10416115;28;20307;-72
2023/10/15 17:54:07;;;;;;;5.90;2.67;;;;;7.40;101933.00;;;;10402961;28;20198;-72
2023/10/15 17:59:09;;;;;;;6.80;2.53;;;;;7.40;101938.00;;;;10403223;28;20211;-72
2023/10/15 18:04:12;;;;;;;11.57;4.00;;;;;7.30;101940.00;;;;10423315;28;20195;-72
2023/10/15 18:09:17;;;;;;;9.47;3.60;;;;;7.20;101944.00;;;;10424159;28;20222;-72
2023/10/15 18:14:19;;;;;;;10.20;3.80;;;;;7.20;101954.00;;;;10411809;28;20203;-72
2023/10/15 18:19:21;;;;;;;10.67;3.77;;;;;7.20;101959.00;;;;10418459;28;20203;-72
2023/10/15 18:24:24;;;;;;;5.13;3.20;;;;;7.20;101965.00;;;;10414234;28;20682;-72
2023/10/15 18:29:26;;;;;;;8.77;3.63;;;;;7.20;101949.00;;;;10423798;28;20237;-72
2023/10/15 18:34:28;;;;;;;9.57;3.80;;;;;7.20;101968.00;;;;10417346;28;20203;-72
2023/10/15 18:39:30;;;;;;;10.87;4.13;;;;;7.30;101964.00;;;;10420563;28;20779;-72
2023/10/15 18:44:32;;;;;;;11.37;3.70;;;;;7.30;101967.00;;;;10424405;28;21026;-72
2023/10/15 18:49:34;;;;;;;7.10;3.90;;;;;7.40;101966.00;;;;10429951;28;20202;-72
2023/10/15 18:54:35;;;;;;;9.10;3.70;;;;;7.40;101971.00;;;;10430849;28;20193;-72
2023/10/15 18:59:37;;;;;;;10.13;3.93;;;;;7.50;101973.00;;;;10425127;28;20313;-72
2023/10/15 19:04:39;;;;;;;6.43;3.90;;;;;7.60;101976.00;;;;10411591;28;20209;-72
2023/10/15 19:09:42;;;;;;;12.03;4.70;;;;;7.60;101971.00;;;;10401574;28;20205;-73
2023/10/15 19:14:44;;;;;;;9.37;4.20;;;;;7.50;101960.00;;;;10405859;28;20202;-73
2023/10/15 19:19:46;;;;;;;7.23;3.80;;;;;7.30;101969.00;;;;10412878;28;20841;-73
2023/10/15 19:24:47;;;;;;;12.93;3.50;;;;;7.20;101979.00;;;;10419088;28;20214;-73
2023/10/15 19:29:49;;;;;;;7.67;3.73;;;;;7.10;101980.00;;;;10413980;28;20202;-71
2023/10/15 19:34:51;;;;;;;14.00;4.00;;;;;7.00;101982.00;;;;10413699;28;20603;-73
2023/10/15 19:39:53;;;;;;;9.27;4.80;;;;;7.00;101980.00;;;;10417519;28;20321;-73
2023/10/15 19:44:55;;;;;;;6.83;4.83;;;;;7.00;101990.00;;;;10418723;28;20691;-72
2023/10/15 19:49:57;;;;;;;11.83;4.90;;;;;7.00;101984.00;;;;10402808;28;20202;-73
2023/10/15 19:54:59;;;;;;;11.80;5.30;;;;;6.90;101982.00;;;;10412665;28;20752;-72
2023/10/15 20:00:04;;;;;;;9.43;5.07;;;;;6.80;101974.00;;;;10414276;28;20676;-71
2023/10/15 20:05:15;;;;;;;10.40;5.13;;;;;6.70;101975.00;;;;10413951;28;20212;-73
2023/10/15 20:10:18;;;;;;;12.23;4.87;;;;;6.60;101975.00;;;;10411221;28;20202;-74
2023/10/15 20:15:20;;;;;;;10.40;5.03;;;;;6.60;101979.00;;;;10418740;28;20237;-74
2023/10/15 20:20:21;;;;;;;6.53;4.70;;;;;6.50;101982.00;;;;10423249;28;20913;-74
2023/10/15 20:25:23;;;;;;;11.57;6.00;;;;;6.40;101976.00;;;;10421743;28;20198;-73
2023/10/15 20:30:25;;;;;;;16.60;5.60;;;;;6.30;101972.00;;;;10416693;28;20712;-74
2023/10/15 20:35:27;;;;;;;13.53;7.70;;;;;6.20;101976.00;;;;10418579;28;20282;-74
2023/10/15 20:40:29;;;;;;;14.27;7.57;;;;;6.20;101975.00;;;;10416112;28;20293;-74
2023/10/15 20:45:31;;;;;;;16.40;7.30;;;;;6.20;101976.00;;;;10428832;28;20237;-74
2023/10/15 20:50:34;;;;;;;11.80;7.27;;;;;6.10;101975.00;;;;10421826;28;20198;-73
2023/10/15 20:55:36;;;;;;;20.87;8.73;;;;;6.10;101982.00;;;;10419994;28;20279;-75
2023/10/15 21:00:38;;;;;;;15.10;9.37;;;;;6.00;101968.00;;;;10413726;28;20221;-74
2023/10/15 21:05:43;;;;;;;17.57;10.77;;;;;5.90;101965.00;;;;10414122;28;20203;-74
2023/10/15 21:10:46;;;;;;;15.40;9.77;;;;;5.90;101962.00;;;;10412428;28;20203;-74
2023/10/15 21:15:48;;;;;;;17.87;9.70;;;;;5.80;101950.00;;;;10414561;28;20199;-74
2023/10/15 21:20:50;;;;;;;19.60;10.27;;;;;5.80;101956.00;;;;10412779;28;20310;-69
2023/10/15 21:25:52;;;;;;;14.97;10.67;;;;;5.80;101962.00;;;;10415684;28;20226;-69
2023/10/15 21:30:54;;;;;;;18.80;10.20;;;;;5.70;101958.00;;;;10412852;28;20657;-69
2023/10/15 21:35:56;;;;;;;12.07;10.23;;;;;5.60;101970.00;;;;10416223;28;20194;-71
2023/10/15 21:40:59;;;;;;;15.90;10.50;;;;;5.60;101963.00;;;;10426862;28;20561;-71
2023/10/15 21:46:01;;;;;;;19.07;10.37;;;;;5.60;101959.00;;;;10431446;28;20191;-70
2023/10/15 21:51:03;;;;;;;18.53;10.87;;;;;5.60;101951.00;;;;10414138;28;20290;-70
2023/10/15 21:56:06;;;;;;;16.10;10.43;;;;;5.50;101959.00;;;;10414210;28;20198;-69
2023/10/15 22:01:07;;;;;;;14.67;10.80;;;;;5.60;101957.00;;;;10417889;28;20560;-69
2023/10/15 22:06:10;;;;;;;19.90;11.43;;;;;5.50;101955.00;;;;10420328;28;20297;-70
2023/10/15 22:11:12;;;;;;;17.67;11.57;;;;;5.40;101955.00;;;;10421163;28;20199;-70
2023/10/15 22:16:14;;;;;;;22.23;12.23;;;;;5.40;101945.00;;;;10417747;28;20275;-70
2023/10/15 22:21:16;;;;;;;17.37;11.60;;;;;5.30;101943.00;;;;10426934;28;20206;-69
2023/10/15 22:26:18;;;;;;;16.47;10.50;;;;;5.30;101931.00;;;;10424121;28;20206;-69
2023/10/15 22:31:22;;;;;;;16.93;10.77;;;;;5.30;101936.00;;;;10413681;28;20857;-72
2023/10/15 22:36:26;;;;;;;15.30;10.57;;;;;5.20;101938.00;;;;10416977;28;20193;-72
2023/10/15 22:41:28;;;;;;;19.33;11.47;;;;;5.20;101929.00;;;;10423636;28;20218;-73
2023/10/15 22:46:30;;;;;;;16.87;10.50;;;;;5.10;101921.00;;;;10425791;28;20268;-73
2023/10/15 22:51:32;;;;;;;15.83;10.63;;;;;5.00;101917.00;;;;10424845;28;20195;-72
2023/10/15 22:56:36;;;;;;;14.13;9.93;;;;;5.00;101923.00;;;;10426013;28;20198;-71
2023/10/15 23:01:39;;;;;;;17.07;9.40;;;;;4.90;101918.00;;;;10420899;28;20226;-72
2023/10/15 23:06:41;;;;;;;17.67;10.60;;;;;4.80;101917.00;;;;10420887;28;20211;-74
2023/10/15 23:11:43;;;;;;;16.33;9.40;;;;;4.80;101913.00;;;;10403330;28;20235;-73
2023/10/15 23:16:45;;;;;;;14.97;9.37;;;;;4.80;101922.00;;;;10413182;28;20234;-72
2023/10/15 23:21:54;;;;;;;17.13;9.57;;;;;4.80;101906.00;;;;10414239;28;20230;-75
2023/10/15 23:26:57;;;;;;;17.40;9.93;;;;;4.70;101916.00;;;;10425617;28;20199;-72
2023/10/15 23:31:59;;;;;;;15.73;8.80;;;;;4.70;101914.00;;;;10415618;28;20858;-72
2023/10/15 23:37:02;;;;;;;15.50;9.97;;;;;4.70;101923.00;;;;10420142;28;20237;-72
2023/10/15 23:42:06;;;;;;;15.50;9.50;;;;;4.70;101915.00;;;;10413668;28;20219;-71
2023/10/15 23:47:17;;;;;;;12.90;8.63;;;;;4.60;101912.00;;;;10419094;28;20229;-71
2023/10/15 23:52:23;;;;;;;17.97;8.37;;;;;4.50;101906.00;;;;10415402;28;20210;-71
2023/10/15 23:57:27;;;;;;;18.40;9.13;;;;;4.40;101907.00;;;;10413877;28;20298;-71
